Time;durP1;ratioP1;P1;durP2;ratioP2;P2;SDS_P1;SDS_P2;PMS_P1;PMS_P2;Temp;Humidity;BMP_temperature;BMP_pressure;BME280_temperature;BME280_humidity;BME280_pressure;Samples;Min_cycle;Max_cycle;Signal;HPM_P1;HPM_P2
2022/09/02 00:02:11;;;;;;;1.20;1.20;;;;;;;26.62;47.88;94755.66;5061184;28;20203;-62
2022/09/02 00:04:38;;;;;;;1.40;1.30;;;;;;;26.78;47.68;94748.28;5050836;28;20203;-64
2022/09/02 00:07:05;;;;;;;2.10;1.80;;;;;;;26.80;47.80;94762.16;5037236;28;20316;-64
2022/09/02 00:09:32;;;;;;;0.70;0.67;;;;;;;26.56;48.11;94756.34;5064136;28;20188;-64
2022/09/02 00:11:59;;;;;;;2.30;1.87;;;;;;;26.69;48.02;94755.81;5051155;28;20893;-65
2022/09/02 00:14:33;;;;;;;0.87;0.87;;;;;;;26.90;47.48;94755.34;5031400;28;20204;-64
2022/09/02 00:17:00;;;;;;;1.47;1.37;;;;;;;26.77;47.69;94751.31;5031380;28;20727;-65
2022/09/02 00:19:29;;;;;;;0.87;0.87;;;;;;;26.48;48.39;94750.06;5049646;28;20188;-65
2022/09/02 00:21:57;;;;;;;7.27;1.13;;;;;;;26.71;48.07;94748.19;5062641;28;20204;-64
2022/09/02 00:24:24;;;;;;;1.40;1.33;;;;;;;26.80;48.40;94746.00;5035926;28;20201;-68
2022/09/02 00:26:52;;;;;;;0.80;0.80;;;;;;;26.77;47.92;94754.78;5050678;28;20200;-66
2022/09/02 00:29:24;;;;;;;0.50;0.50;;;;;;;26.88;47.60;94753.03;5042930;28;20193;-66
2022/09/02 00:31:51;;;;;;;0.77;0.77;;;;;;;26.71;47.97;94763.53;5070051;28;20199;-63
2022/09/02 00:34:19;;;;;;;1.03;1.03;;;;;;;26.78;47.81;94759.03;5052730;28;20207;-66
2022/09/02 00:36:46;;;;;;;1.17;1.07;;;;;;;26.76;47.85;94766.69;5045462;28;20206;-68
2022/09/02 00:39:13;;;;;;;3.00;2.00;;;;;;;26.68;47.99;94770.38;5042056;28;20205;-64
2022/09/02 00:41:41;;;;;;;5.30;1.90;;;;;;;26.73;47.85;94772.75;5070188;28;20192;-63
2022/09/02 00:44:12;;;;;;;2.90;1.17;;;;;;;26.85;47.90;94769.91;5069198;28;20226;-67
2022/09/02 00:46:39;;;;;;;1.90;1.57;;;;;;;26.81;47.73;94769.06;5055965;28;20192;-66
2022/09/02 00:49:23;;;;;;;0.73;0.73;;;;;;;26.75;48.20;94775.88;5070559;28;20270;-62
2022/09/02 00:51:56;;;;;;;1.40;1.30;;;;;;;26.73;48.24;94783.50;5042175;28;20568;-64
2022/09/02 00:54:28;;;;;;;1.87;1.70;;;;;;;26.86;47.83;94784.88;5045617;28;20314;-65
2022/09/02 00:56:55;;;;;;;1.40;1.17;;;;;;;26.91;47.93;94773.84;5039457;28;20205;-62
2022/09/02 00:59:39;;;;;;;1.00;1.00;;;;;;;26.89;48.02;94781.50;5069549;28;20206;-66
2022/09/02 01:02:08;;;;;;;4.50;2.03;;;;;;;26.87;47.91;94773.00;5068877;28;20200;-64
2022/09/02 01:04:36;;;;;;;1.07;1.07;;;;;;;26.98;47.75;94773.94;5069990;28;20204;-64
2022/09/02 01:07:05;;;;;;;1.03;0.93;;;;;;;26.96;47.94;94768.16;5068320;28;20204;-66
2022/09/02 01:09:32;;;;;;;1.07;0.97;;;;;;;26.88;47.97;94769.16;5037470;28;20197;-65
2022/09/02 01:12:01;;;;;;;1.47;1.37;;;;;;;26.83;48.20;94777.53;5069020;28;20200;-67
2022/09/02 01:14:29;;;;;;;4.13;1.60;;;;;;;26.89;48.20;94781.50;5056059;28;20203;-67
2022/09/02 01:16:59;;;;;;;1.50;0.97;;;;;;;26.96;48.02;94765.47;5069892;28;20286;-65
2022/09/02 01:19:42;;;;;;;2.23;1.57;;;;;;;26.60;48.56;94767.91;5043292;28;20203;-67
2022/09/02 01:22:20;;;;;;;2.10;1.90;;;;;;;26.15;49.73;94768.66;5057564;28;20200;-63
2022/09/02 01:24:47;;;;;;;1.60;1.50;;;;;;;26.21;49.61;94778.00;5056569;28;20221;-67
2022/09/02 01:27:20;;;;;;;1.33;1.23;;;;;;;25.66;50.48;94783.78;5068726;28;20195;-67
2022/09/02 01:29:58;;;;;;;2.10;1.90;;;;;;;25.71;50.07;94770.09;5063812;28;20199;-64
2022/09/02 01:32:28;;;;;;;0.70;0.70;;;;;;;26.13;49.07;94776.28;5063345;28;20331;-66
2022/09/02 01:34:55;;;;;;;2.47;1.73;;;;;;;26.32;48.35;94781.66;5044841;28;20213;-67
2022/09/02 01:37:22;;;;;;;3.70;1.63;;;;;;;25.99;49.09;94781.38;5029510;28;20200;-62
2022/09/02 01:39:51;;;;;;;1.20;1.17;;;;;;;26.17;48.47;94777.13;5057766;28;20901;-67
2022/09/02 01:42:19;;;;;;;1.10;1.00;;;;;;;26.45;47.81;94766.13;5040431;28;20196;-65
2022/09/02 01:44:47;;;;;;;0.70;0.70;;;;;;;26.36;47.57;94762.91;5060184;28;20252;-63
2022/09/02 01:47:18;;;;;;;2.60;2.40;;;;;;;26.49;47.58;94754.31;5037527;28;20192;-64
2022/09/02 01:49:46;;;;;;;3.70;1.97;;;;;;;26.23;48.05;94748.88;5049629;28;20208;-66
2022/09/02 01:52:14;;;;;;;1.50;1.40;;;;;;;26.51;47.38;94743.97;5045144;28;20196;-63
2022/09/02 01:54:41;;;;;;;1.20;1.10;;;;;;;26.73;47.12;94747.81;5041041;28;20639;-64
2022/09/02 01:57:09;;;;;;;1.20;1.10;;;;;;;26.71;46.95;94731.28;5039926;28;20203;-67
2022/09/02 01:59:37;;;;;;;0.40;0.40;;;;;;;26.61;47.10;94732.63;5058997;28;20200;-65
2022/09/02 02:02:05;;;;;;;2.83;2.13;;;;;;;26.64;46.76;94726.50;5065696;28;20286;-65
2022/09/02 02:04:32;;;;;;;0.73;0.70;;;;;;;26.55;46.86;94728.66;5084863;28;20220;-65
2022/09/02 02:07:02;;;;;;;0.53;0.53;;;;;;;26.62;46.79;94725.34;5052487;28;20196;-68
2022/09/02 02:09:29;;;;;;;0.47;0.47;;;;;;;26.56;46.54;94724.88;5042845;28;20192;-66
2022/09/02 02:11:57;;;;;;;1.23;1.13;;;;;;;26.63;45.55;94719.59;5054894;28;20212;-66
2022/09/02 02:14:26;;;;;;;0.90;0.90;;;;;;;26.67;45.25;94715.06;5068802;28;20199;-66
2022/09/02 02:16:53;;;;;;;0.47;0.47;;;;;;;26.57;45.61;94726.41;5068697;28;20222;-63
2022/09/02 02:19:20;;;;;;;0.60;0.60;;;;;;;26.36;45.63;94731.44;5054847;28;20206;-65
2022/09/02 02:21:47;;;;;;;0.50;0.50;;;;;;;26.60;45.26;94728.38;5047903;28;20589;-62
2022/09/02 02:24:16;;;;;;;0.87;0.87;;;;;;;26.51;45.45;94735.91;5060141;28;20228;-65
2022/09/02 02:26:42;;;;;;;0.47;0.47;;;;;;;26.62;45.24;94734.16;5050720;28;20201;-65
2022/09/02 02:29:10;;;;;;;0.50;0.43;;;;;;;26.55;45.61;94731.34;5043215;28;20627;-64
2022/09/02 02:31:38;;;;;;;1.10;0.70;;;;;;;26.58;45.73;94736.03;5071113;28;20234;-65
2022/09/02 02:34:06;;;;;;;0.40;0.40;;;;;;;26.57;45.79;94737.16;5058257;28;20259;-65
2022/09/02 02:36:33;;;;;;;0.60;0.60;;;;;;;26.50;45.56;94750.47;5068013;28;20209;-62
2022/09/02 02:39:00;;;;;;;0.67;0.67;;;;;;;26.39;46.02;94752.22;5063619;28;20302;-64
2022/09/02 02:41:30;;;;;;;0.40;0.40;;;;;;;26.54;45.59;94748.63;5053299;28;20195;-62
2022/09/02 02:43:59;;;;;;;0.53;0.53;;;;;;;26.25;46.18;94741.22;5078989;28;20216;-65
2022/09/02 02:46:29;;;;;;;0.90;0.90;;;;;;;26.21;46.37;94751.13;5054149;28;20216;-65
2022/09/02 02:49:01;;;;;;;0.60;0.60;;;;;;;26.03;46.61;94752.69;5051467;28;20254;-64
2022/09/02 02:51:28;;;;;;;6.30;1.27;;;;;;;25.90;47.20;94756.66;5036856;28;20194;-63
2022/09/02 02:53:55;;;;;;;0.60;0.53;;;;;;;26.06;46.99;94749.31;5048809;28;20192;-63
2022/09/02 02:56:28;;;;;;;0.60;0.60;;;;;;;25.69;48.29;94751.66;5042013;28;20316;-64
2022/09/02 02:58:59;;;;;;;0.40;0.40;;;;;;;25.69;48.18;94743.59;5067051;28;20624;-65
2022/09/02 03:01:26;;;;;;;0.70;0.70;;;;;;;25.84;47.92;94737.38;5071119;28;20227;-64
2022/09/02 03:03:53;;;;;;;1.07;1.07;;;;;;;25.83;48.29;94746.56;5072213;28;20192;-63
2022/09/02 03:06:23;;;;;;;0.57;0.57;;;;;;;25.78;48.15;94752.22;5061165;28;20196;-64
2022/09/02 03:08:56;;;;;;;0.20;0.20;;;;;;;25.78;48.22;94754.13;5079860;28;20203;-64
2022/09/02 03:11:27;;;;;;;0.20;0.20;;;;;;;25.50;48.59;94737.47;5039435;28;20746;-65
2022/09/02 03:13:55;;;;;;;0.30;0.30;;;;;;;25.57;48.89;94754.47;5067328;28;20201;-67
2022/09/02 03:16:22;;;;;;;0.20;0.20;;;;;;;25.59;48.79;94752.22;5057765;28;20227;-66
2022/09/02 03:18:52;;;;;;;0.13;0.13;;;;;;;25.73;48.21;94757.13;5043170;28;20209;-67
2022/09/02 03:21:19;;;;;;;0.60;0.60;;;;;;;25.60;48.64;94742.28;5032314;28;20660;-65
2022/09/02 03:23:46;;;;;;;3.67;1.03;;;;;;;25.73;48.22;94741.00;5056753;28;20650;-62
2022/09/02 03:26:17;;;;;;;0.90;0.90;;;;;;;25.76;48.53;94748.34;5087914;28;20257;-62
2022/09/02 03:28:46;;;;;;;0.40;0.40;;;;;;;25.79;48.36;94747.63;5064926;28;20267;-66
2022/09/02 03:31:17;;;;;;;1.80;0.97;;;;;;;25.89;47.85;94739.00;5035731;28;20645;-63
2022/09/02 03:33:45;;;;;;;0.20;0.20;;;;;;;25.43;49.04;94748.06;5052116;28;20192;-66
2022/09/02 03:36:39;;;;;;;0.57;0.57;;;;;;;25.77;48.06;94744.50;5066041;28;20451;-67
2022/09/02 03:39:08;;;;;;;1.67;0.80;;;;;;;25.67;48.31;94753.16;5063499;28;20233;-66
2022/09/02 03:41:41;;;;;;;1.53;1.43;;;;;;;25.69;48.52;94750.88;5044952;28;20201;-62
2022/09/02 03:44:10;;;;;;;0.50;0.50;;;;;;;25.67;48.73;94761.19;5059043;28;20236;-67
2022/09/02 03:46:38;;;;;;;0.47;0.47;;;;;;;25.70;48.18;94755.13;5086191;28;20214;-62
2022/09/02 03:49:05;;;;;;;2.23;0.83;;;;;;;25.60;48.58;94758.38;5059640;28;20200;-64
2022/09/02 03:51:32;;;;;;;0.50;0.50;;;;;;;25.50;48.87;94775.03;5051181;28;20263;-63
2022/09/02 03:54:01;;;;;;;0.50;0.50;;;;;;;25.63;48.66;94781.81;5048712;28;20186;-61
2022/09/02 03:56:29;;;;;;;2.77;1.03;;;;;;;25.82;48.35;94781.84;5043173;28;20283;-68
2022/09/02 03:58:56;;;;;;;1.57;1.43;;;;;;;25.90;47.91;94786.97;5066087;28;20187;-65
2022/09/02 04:01:26;;;;;;;1.13;1.00;;;;;;;25.82;48.08;94784.50;5046165;28;20204;-65
2022/09/02 04:04:03;;;;;;;5.80;0.77;;;;;;;25.86;48.16;94798.75;5059929;28;20195;-64
2022/09/02 04:06:32;;;;;;;0.20;0.20;;;;;;;25.78;48.28;94797.09;5050019;28;20192;-66
2022/09/02 04:09:01;;;;;;;0.73;0.73;;;;;;;25.70;48.68;94795.38;5050249;28;20204;-64
2022/09/02 04:11:30;;;;;;;0.50;0.50;;;;;;;25.67;48.91;94802.25;5037788;28;20196;-63
2022/09/02 04:13:57;;;;;;;0.57;0.57;;;;;;;25.53;48.85;94801.16;5035674;28;20686;-65
2022/09/02 04:16:27;;;;;;;0.93;0.93;;;;;;;25.45;49.39;94802.13;5047334;28;20315;-66
2022/09/02 04:19:02;;;;;;;0.50;0.50;;;;;;;25.67;48.74;94801.47;5051087;28;20253;-62
2022/09/02 04:21:35;;;;;;;0.80;0.80;;;;;;;25.45;49.51;94812.88;5053531;28;20654;-66
2022/09/02 04:24:03;;;;;;;1.27;1.10;;;;;;;25.48;49.26;94814.84;5062746;28;20200;-67
2022/09/02 04:26:31;;;;;;;0.20;0.20;;;;;;;25.75;48.51;94808.50;5059046;28;20222;-64
2022/09/02 04:28:58;;;;;;;0.33;0.33;;;;;;;25.67;48.90;94814.88;5034561;28;20201;-63
2022/09/02 04:31:31;;;;;;;0.37;0.37;;;;;;;25.41;49.22;94826.22;5045377;28;20293;-65
2022/09/02 04:33:59;;;;;;;0.93;0.87;;;;;;;25.19;49.75;94812.63;5042650;28;20249;-64
2022/09/02 04:36:27;;;;;;;0.83;0.40;;;;;;;25.33;49.84;94818.31;5044747;28;20314;-63
2022/09/02 04:39:00;;;;;;;0.73;0.73;;;;;;;25.41;49.67;94820.84;5053059;28;20303;-60
2022/09/02 04:41:30;;;;;;;8.33;7.00;;;;;;;25.46;49.87;94817.09;5064893;28;20269;-65
2022/09/02 04:44:01;;;;;;;4.83;4.07;;;;;;;25.49;50.16;94822.53;5061186;28;20735;-65
2022/09/02 04:46:33;;;;;;;6.50;2.80;;;;;;;25.72;49.16;94825.31;5035227;28;20216;-64
2022/09/02 04:49:05;;;;;;;2.57;2.37;;;;;;;25.77;49.13;94823.13;5053813;28;20209;-64
2022/09/02 04:51:32;;;;;;;1.40;1.30;;;;;;;25.79;49.32;94828.16;5035325;28;20205;-63
2022/09/02 04:54:01;;;;;;;0.53;0.53;;;;;;;25.62;49.33;94828.56;5047384;28;20541;-64
2022/09/02 04:56:31;;;;;;;0.87;0.87;;;;;;;25.62;49.47;94831.25;5045896;28;20331;-67
2022/09/02 04:58:59;;;;;;;6.70;5.60;;;;;;;25.94;48.91;94833.47;5050372;28;20196;-67
2022/09/02 05:01:31;;;;;;;4.43;4.13;;;;;;;26.08;48.97;94830.31;5068090;28;20241;-66
2022/09/02 05:04:08;;;;;;;1.93;1.80;;;;;;;26.11;48.73;94828.81;5065054;28;20206;-66
2022/09/02 05:06:39;;;;;;;0.47;0.47;;;;;;;26.20;48.47;94827.47;5058960;28;20832;-67
2022/09/02 05:09:14;;;;;;;0.50;0.50;;;;;;;26.19;48.03;94833.97;5067515;28;20568;-69
2022/09/02 05:11:42;;;;;;;0.67;0.67;;;;;;;26.21;48.01;94830.91;5056784;28;20203;-69
2022/09/02 05:14:09;;;;;;;4.53;3.93;;;;;;;26.24;47.99;94830.22;5034792;28;20715;-66
2022/09/02 05:16:39;;;;;;;4.53;4.13;;;;;;;26.38;48.47;94825.91;5050411;28;20230;-72
2022/09/02 05:19:12;;;;;;;2.63;2.47;;;;;;;26.38;48.40;94825.13;5054421;28;20212;-69
2022/09/02 05:21:45;;;;;;;0.70;0.70;;;;;;;26.30;49.19;94837.63;5043331;28;20254;-65
2022/09/02 05:24:22;;;;;;;0.60;0.60;;;;;;;26.14;49.40;94833.47;5040256;28;20204;-66
2022/09/02 05:26:55;;;;;;;2.13;1.50;;;;;;;26.17;49.31;94844.28;5036747;28;20199;-66
2022/09/02 05:29:25;;;;;;;0.80;0.80;;;;;;;26.17;48.80;94841.59;5059811;28;20199;-68
2022/09/02 05:31:54;;;;;;;0.60;0.60;;;;;;;26.11;48.51;94840.34;5035618;28;20201;-65
2022/09/02 05:34:22;;;;;;;0.50;0.50;;;;;;;26.16;48.52;94840.06;5062277;28;20561;-66
2022/09/02 05:36:52;;;;;;;1.13;1.13;;;;;;;25.91;48.81;94838.78;5046345;28;20315;-66
2022/09/02 05:39:19;;;;;;;0.80;0.80;;;;;;;25.93;49.08;94841.84;5063193;28;20286;-65
2022/09/02 05:41:47;;;;;;;1.23;0.93;;;;;;;25.42;50.30;94840.41;5060763;28;20200;-65
2022/09/02 05:44:15;;;;;;;1.47;1.10;;;;;;;25.11;50.73;94838.50;5063655;28;20259;-63
2022/09/02 05:46:43;;;;;;;0.70;0.70;;;;;;;25.66;50.17;94837.47;5061095;28;20192;-66
2022/09/02 05:49:20;;;;;;;1.13;1.10;;;;;;;26.09;50.98;94834.56;5036177;28;20201;-66
2022/09/02 05:51:58;;;;;;;0.67;0.67;;;;;;;25.81;50.77;94842.78;5046508;28;20731;-65
2022/09/02 05:54:48;;;;;;;2.17;0.90;;;;;;;25.75;51.12;94844.19;5047377;28;20200;-68
2022/09/02 05:57:17;;;;;;;0.70;0.70;;;;;;;25.92;50.63;94841.09;5045464;28;20216;-64
2022/09/02 05:59:55;;;;;;;1.20;1.13;;;;;;;26.10;50.07;94836.09;5047324;28;20204;-64
2022/09/02 06:02:42;;;;;;;1.13;0.93;;;;;;;26.14;50.76;94834.25;5029379;28;20216;-67
2022/09/02 06:05:31;;;;;;;0.90;0.90;;;;;;;25.86;51.66;94830.97;5052659;28;20211;-65
2022/09/02 06:08:11;;;;;;;0.73;0.50;;;;;;;25.91;51.09;94838.78;5047922;28;20684;-66
2022/09/02 06:10:42;;;;;;;1.70;1.30;;;;;;;25.96;50.81;94836.59;5044964;28;20752;-66
2022/09/02 06:13:14;;;;;;;0.73;0.73;;;;;;;26.08;50.01;94838.34;5060876;28;20724;-65
2022/09/02 06:15:43;;;;;;;0.80;0.80;;;;;;;26.24;49.67;94833.66;5061821;28;20199;-65
2022/09/02 06:18:12;;;;;;;0.80;0.80;;;;;;;26.08;49.91;94843.72;5061428;28;20204;-66
2022/09/02 06:20:45;;;;;;;1.63;1.17;;;;;;;26.40;49.54;94838.97;5054710;28;20211;-66
2022/09/02 06:23:15;;;;;;;1.73;1.47;;;;;;;25.77;50.82;94835.78;5033750;28;22869;-64
2022/09/02 06:25:46;;;;;;;0.83;0.83;;;;;;;25.58;50.90;94835.78;5056165;28;20230;-65
2022/09/02 06:28:15;;;;;;;0.80;0.80;;;;;;;25.88;50.45;94840.25;5063876;28;20196;-65
2022/09/02 06:30:47;;;;;;;0.60;0.60;;;;;;;25.78;50.38;94843.47;5056214;28;20210;-65
2022/09/02 06:33:17;;;;;;;1.67;0.80;;;;;;;25.94;50.38;94841.53;5061833;28;20635;-66
2022/09/02 06:35:46;;;;;;;0.80;0.80;;;;;;;26.03;50.31;94846.69;5037255;28;20189;-67
2022/09/02 06:38:18;;;;;;;3.87;1.23;;;;;;;25.98;50.02;94839.66;5039733;28;20270;-65
2022/09/02 06:40:53;;;;;;;0.50;0.50;;;;;;;26.08;49.65;94842.94;5054260;28;20204;-67
2022/09/02 06:43:33;;;;;;;0.47;0.47;;;;;;;26.30;49.62;94856.44;5041229;28;20240;-69
2022/09/02 06:46:19;;;;;;;1.03;0.80;;;;;;;26.40;50.04;94850.50;5045020;28;20302;-64
2022/09/02 06:48:49;;;;;;;0.40;0.40;;;;;;;26.36;50.46;94849.66;5065508;28;20208;-67
2022/09/02 06:51:30;;;;;;;0.50;0.50;;;;;;;26.49;49.63;94856.44;5036906;28;20296;-68
2022/09/02 06:53:59;;;;;;;0.60;0.60;;;;;;;26.44;49.29;94839.81;5081781;28;20741;-67
2022/09/02 06:56:32;;;;;;;2.00;1.20;;;;;;;26.88;48.60;94851.75;5037995;28;20208;-66
2022/09/02 06:59:00;;;;;;;0.93;0.93;;;;;;;26.72;48.89;94857.25;5043693;28;20683;-65
2022/09/02 07:01:41;;;;;;;0.70;0.70;;;;;;;26.95;48.16;94855.31;5059709;28;20674;-64
2022/09/02 07:06:58;;;;;;;0.67;0.60;;;;;;;26.56;49.22;94859.25;5065634;28;20253;-64
2022/09/02 07:09:32;;;;;;;1.20;1.10;;;;;;;26.73;48.97;94868.78;5046341;28;20224;-67
2022/09/02 07:12:07;;;;;;;0.50;0.47;;;;;;;26.30;49.65;94869.88;5047882;28;20208;-65
2022/09/02 07:14:42;;;;;;;3.37;1.33;;;;;;;26.20;49.91;94883.88;5065146;28;20191;-67
2022/09/02 07:17:16;;;;;;;1.00;1.00;;;;;;;26.63;49.01;94867.44;5044764;28;20263;-68
2022/09/02 07:19:48;;;;;;;1.33;1.23;;;;;;;26.68;48.59;94861.78;5058975;28;20619;-68
2022/09/02 07:22:15;;;;;;;0.97;0.97;;;;;;;26.73;48.55;94858.78;5058819;28;20208;-66
2022/09/02 07:24:45;;;;;;;0.80;0.80;;;;;;;26.45;50.01;94879.75;5041829;28;20250;-67
2022/09/02 07:27:13;;;;;;;0.97;0.97;;;;;;;26.82;49.51;94878.16;5042204;28;20215;-67
2022/09/02 07:29:43;;;;;;;0.67;0.67;;;;;;;26.23;51.18;94877.81;5042793;28;20681;-65
2022/09/02 07:32:10;;;;;;;1.33;1.23;;;;;;;26.66;49.60;94874.00;5053450;28;20208;-67
2022/09/02 07:34:37;;;;;;;0.80;0.80;;;;;;;26.87;48.63;94877.88;5031381;28;20196;-67
2022/09/02 07:37:05;;;;;;;0.97;0.83;;;;;;;26.70;49.26;94864.88;5058194;28;20232;-66
2022/09/02 07:39:38;;;;;;;0.37;0.37;;;;;;;26.47;50.27;94876.72;5046195;28;20613;-66
2022/09/02 07:42:05;;;;;;;0.40;0.40;;;;;;;26.42;50.50;94877.78;5063062;28;20692;-66
2022/09/02 07:44:34;;;;;;;1.00;0.93;;;;;;;26.58;50.29;94872.31;5044486;28;20306;-68
2022/09/02 07:47:04;;;;;;;1.07;1.00;;;;;;;26.50;50.32;94876.00;5030574;28;20730;-65
2022/09/02 07:49:34;;;;;;;1.17;1.17;;;;;;;26.36;50.91;94863.09;5055453;28;20212;-66
2022/09/02 07:52:21;;;;;;;0.43;0.43;;;;;;;26.57;50.32;94876.16;5038112;28;20279;-66
2022/09/02 07:54:49;;;;;;;0.53;0.53;;;;;;;26.98;49.56;94876.16;5057292;28;20208;-68
2022/09/02 07:57:16;;;;;;;1.50;1.40;;;;;;;27.15;48.53;94879.47;5028540;28;20216;-66
2022/09/02 07:59:45;;;;;;;0.53;0.53;;;;;;;27.10;48.28;94871.72;5052526;28;20286;-67
2022/09/02 08:02:13;;;;;;;0.97;0.97;;;;;;;26.90;48.35;94874.47;5028254;28;20204;-67
2022/09/02 08:04:40;;;;;;;3.40;0.83;;;;;;;26.48;46.93;94895.16;5030109;28;20211;-67
2022/09/02 08:07:07;;;;;;;1.33;1.07;;;;;;;26.94;46.57;94883.38;5054741;28;20205;-65
2022/09/02 08:09:34;;;;;;;0.50;0.50;;;;;;;27.07;46.08;94885.88;5040672;28;20188;-68
2022/09/02 08:12:02;;;;;;;0.60;0.60;;;;;;;27.05;46.35;94875.47;5055550;28;20203;-67
2022/09/02 08:14:29;;;;;;;0.37;0.37;;;;;;;26.82;46.88;94894.28;5054671;28;20180;-66
2022/09/02 08:16:57;;;;;;;0.30;0.30;;;;;;;26.91;47.31;94888.69;5041985;28;20224;-67
2022/09/02 08:19:25;;;;;;;0.70;0.70;;;;;;;26.86;47.69;94897.81;5046266;28;20184;-67
2022/09/02 08:21:52;;;;;;;0.40;0.40;;;;;;;27.08;47.38;94890.13;5051324;28;20201;-66
2022/09/02 08:24:19;;;;;;;0.50;0.50;;;;;;;27.30;46.69;94898.16;5056267;28;20594;-69
2022/09/02 08:26:46;;;;;;;1.93;1.30;;;;;;;27.00;46.99;94884.63;5041048;28;20645;-73
2022/09/02 08:29:13;;;;;;;0.80;0.80;;;;;;;27.15;46.79;94895.63;5034210;28;20606;-67
2022/09/02 08:31:40;;;;;;;0.87;0.87;;;;;;;27.33;46.39;94891.31;5042157;28;20293;-68
2022/09/02 08:34:07;;;;;;;0.30;0.30;;;;;;;26.85;46.12;94893.59;5053107;28;20192;-69
2022/09/02 08:36:33;;;;;;;1.13;0.93;;;;;;;26.87;45.92;94880.56;5055135;28;20501;-67
2022/09/02 08:39:02;;;;;;;0.93;0.83;;;;;;;26.94;46.42;94894.13;5055153;28;20201;-67
2022/09/02 08:41:46;;;;;;;0.60;0.60;;;;;;;26.77;45.90;94889.22;5028807;28;20296;-66
2022/09/02 08:44:20;;;;;;;0.60;0.60;;;;;;;26.82;45.85;94888.16;5027134;28;20228;-66
2022/09/02 08:46:49;;;;;;;0.30;0.30;;;;;;;26.75;46.42;94888.78;5054399;28;20219;-69
2022/09/02 08:49:28;;;;;;;1.53;1.20;;;;;;;26.96;46.11;94878.41;5054396;28;20253;-68
2022/09/02 08:52:01;;;;;;;0.93;0.80;;;;;;;26.62;46.17;94892.75;5032124;28;20281;-66
2022/09/02 08:54:55;;;;;;;0.80;0.80;;;;;;;26.93;46.20;94876.41;5060246;28;20199;-67
2022/09/02 08:57:25;;;;;;;0.93;0.50;;;;;;;27.10;45.84;94877.09;5046935;28;20343;-64
2022/09/02 08:59:57;;;;;;;4.73;1.47;;;;;;;26.87;47.26;94874.41;5037439;28;20212;-67
2022/09/02 09:03:01;;;;;;;0.40;0.40;;;;;;;27.18;47.00;94881.44;5053161;28;20197;-65
2022/09/02 09:05:50;;;;;;;2.47;0.57;;;;;;;27.22;46.61;94879.59;5039096;28;20203;-69
2022/09/02 09:08:44;;;;;;;1.63;1.53;;;;;;;27.23;45.97;94887.28;5040232;28;20209;-63
2022/09/02 09:11:37;;;;;;;0.80;0.80;;;;;;;27.21;45.75;94880.72;5020902;28;20603;-72
2022/09/02 09:14:35;;;;;;;0.40;0.40;;;;;;;27.07;46.28;94878.59;5041500;28;20216;-71
2022/09/02 09:17:30;;;;;;;0.63;0.63;;;;;;;26.99;46.85;94869.63;5040370;28;20247;-70
2022/09/02 09:20:02;;;;;;;1.00;0.73;;;;;;;27.27;46.25;94865.81;5029686;28;20204;-70
2022/09/02 09:22:37;;;;;;;0.57;0.50;;;;;;;27.29;45.87;94860.84;5040244;28;20200;-69
2022/09/02 09:25:12;;;;;;;0.70;0.70;;;;;;;27.67;45.36;94857.97;5049731;28;20191;-69
2022/09/02 09:27:40;;;;;;;1.33;1.23;;;;;;;27.49;45.74;94865.03;5045894;28;20211;-66
2022/09/02 09:30:08;;;;;;;2.63;0.53;;;;;;;27.74;44.94;94863.47;5051882;28;20208;-67
2022/09/02 09:32:48;;;;;;;0.60;0.60;;;;;;;27.97;44.39;94861.50;5052386;28;20227;-68
2022/09/02 09:35:17;;;;;;;0.40;0.40;;;;;;;27.66;44.56;94851.06;5037860;28;20562;-67
2022/09/02 09:37:52;;;;;;;0.50;0.50;;;;;;;27.94;43.49;94857.63;5044495;28;20354;-68
2022/09/02 09:40:22;;;;;;;0.80;0.80;;;;;;;28.12;43.43;94852.44;5048222;28;20194;-67
2022/09/02 09:43:12;;;;;;;1.37;1.03;;;;;;;27.96;44.42;94849.16;5057378;28;20273;-66
2022/09/02 09:45:44;;;;;;;0.30;0.30;;;;;;;27.95;44.12;94858.41;5031129;28;20204;-69
2022/09/02 09:48:30;;;;;;;1.47;1.37;;;;;;;28.02;44.47;94842.31;5038708;28;20193;-68
2022/09/02 09:50:57;;;;;;;1.07;0.83;;;;;;;27.88;44.97;94842.13;5028264;28;20240;-68
2022/09/02 09:53:31;;;;;;;0.40;0.40;;;;;;;28.16;43.55;94842.47;5037621;28;20257;-66
2022/09/02 09:56:05;;;;;;;1.67;1.57;;;;;;;28.05;43.84;94848.91;5032848;28;20255;-68
2022/09/02 09:58:43;;;;;;;1.50;1.40;;;;;;;28.12;43.91;94852.44;5047897;28;20292;-69
2022/09/02 10:01:14;;;;;;;2.73;2.10;;;;;;;28.10;44.43;94849.34;5033252;28;20192;-67
2022/09/02 10:04:03;;;;;;;2.17;1.87;;;;;;;28.25;43.92;94856.44;5040174;28;20196;-67
2022/09/02 10:06:47;;;;;;;0.73;0.73;;;;;;;28.13;43.51;94858.59;5020241;28;20201;-64
2022/09/02 10:09:17;;;;;;;0.70;0.70;;;;;;;27.87;43.13;94852.13;5019707;28;20201;-68
2022/09/02 10:11:57;;;;;;;0.97;0.97;;;;;;;27.93;43.54;94861.47;5032358;28;20202;-68
2022/09/02 10:14:32;;;;;;;0.60;0.60;;;;;;;28.13;43.41;94854.00;5030663;28;20697;-68
2022/09/02 10:17:15;;;;;;;0.53;0.53;;;;;;;28.25;42.89;94853.75;5058988;28;20206;-64
2022/09/02 10:19:48;;;;;;;0.90;0.90;;;;;;;28.22;43.04;94856.41;5029352;28;20205;-65
2022/09/02 10:22:40;;;;;;;5.20;2.30;;;;;;;28.50;42.78;94854.78;5038199;28;20201;-67
2022/09/02 10:25:57;;;;;;;1.07;1.07;;;;;;;28.33;43.28;94847.31;5029915;28;20950;-68
2022/09/02 10:28:58;;;;;;;1.60;1.50;;;;;;;28.37;43.64;94845.44;5026139;28;20197;-67
2022/09/02 10:31:47;;;;;;;5.40;1.50;;;;;;;28.27;44.86;94843.38;5038754;28;20640;-64
2022/09/02 10:34:34;;;;;;;0.70;0.70;;;;;;;28.55;44.19;94838.31;5039555;28;20231;-65
2022/09/02 10:37:05;;;;;;;0.60;0.60;;;;;;;29.40;41.73;94839.03;5027377;28;20577;-68
2022/09/02 10:40:01;;;;;;;1.03;1.03;;;;;;;29.51;41.51;94850.69;5053289;28;20199;-66
2022/09/02 10:42:52;;;;;;;0.63;0.63;;;;;;;29.65;40.81;94848.09;5051270;28;20322;-68
2022/09/02 10:45:33;;;;;;;0.50;0.50;;;;;;;29.84;40.68;94842.44;5046083;28;20205;-66
2022/09/02 10:48:14;;;;;;;3.57;2.90;;;;;;;29.62;40.42;94846.13;5039529;28;20204;-68
2022/09/02 10:50:59;;;;;;;8.53;3.23;;;;;;;29.26;41.19;94841.66;5045117;28;20843;-68
2022/09/02 10:54:02;;;;;;;2.53;2.10;;;;;;;28.96;42.14;94839.84;5055036;28;20200;-67
2022/09/02 10:57:03;;;;;;;2.53;1.50;;;;;;;29.28;41.26;94847.47;5034616;28;20663;-68
2022/09/02 10:59:56;;;;;;;1.60;1.33;;;;;;;29.43;40.99;94839.09;5033820;28;20235;-66
2022/09/02 11:02:30;;;;;;;1.37;1.33;;;;;;;29.40;41.16;94834.44;5039169;28;20578;-68
2022/09/02 11:05:02;;;;;;;1.43;1.33;;;;;;;29.31;40.69;94836.69;5043712;28;20291;-67
2022/09/02 11:07:42;;;;;;;1.23;1.13;;;;;;;29.10;41.42;94838.44;5058322;28;20208;-66
2022/09/02 11:10:27;;;;;;;1.30;1.20;;;;;;;29.79;40.75;94823.88;5063086;28;20655;-66
2022/09/02 11:13:13;;;;;;;0.90;0.90;;;;;;;28.61;41.85;94828.75;5043912;28;20200;-69
2022/09/02 11:15:50;;;;;;;0.43;0.43;;;;;;;29.75;41.15;94828.50;5029905;28;20239;-68
2022/09/02 11:18:45;;;;;;;0.70;0.70;;;;;;;30.38;40.29;94822.59;5056280;28;20227;-67
2022/09/02 11:21:27;;;;;;;0.87;0.87;;;;;;;29.67;41.52;94810.69;5044398;28;20204;-67
2022/09/02 11:24:11;;;;;;;1.43;1.33;;;;;;;29.74;42.09;94832.38;5051068;28;20208;-68
2022/09/02 11:27:16;;;;;;;1.50;1.40;;;;;;;30.42;40.54;94821.44;5037189;28;20259;-67
2022/09/02 11:30:10;;;;;;;0.83;0.83;;;;;;;30.83;38.43;94811.91;5032607;28;20207;-68
2022/09/02 11:32:44;;;;;;;0.50;0.50;;;;;;;29.40;39.87;94822.84;5049744;28;20204;-67
2022/09/02 11:35:26;;;;;;;1.00;1.00;;;;;;;30.59;38.22;94807.19;5061424;28;20325;-68
2022/09/02 11:38:03;;;;;;;1.83;1.73;;;;;;;30.64;38.32;94804.09;5061742;28;20247;-69
2022/09/02 11:40:49;;;;;;;0.60;0.60;;;;;;;31.21;38.69;94801.44;5021969;28;20201;-68
2022/09/02 11:43:47;;;;;;;1.23;1.20;;;;;;;31.39;38.65;94788.66;5054422;28;20230;-66
2022/09/02 11:46:35;;;;;;;4.07;1.70;;;;;;;31.35;37.69;94782.47;5053024;28;20207;-69
2022/09/02 11:49:38;;;;;;;1.53;1.43;;;;;;;31.62;36.94;94770.06;5055168;28;20280;-68
2022/09/02 11:52:32;;;;;;;2.43;1.77;;;;;;;31.85;36.91;94778.47;5036118;28;20562;-68
2022/09/02 11:55:18;;;;;;;1.67;1.57;;;;;;;31.67;36.10;94772.34;5027874;28;20223;-67
2022/09/02 11:57:53;;;;;;;1.67;1.57;;;;;;;31.54;37.35;94773.94;5029524;28;20216;-66
2022/09/02 12:00:30;;;;;;;3.17;0.87;;;;;;;31.44;37.02;94769.34;5039979;28;20602;-66
2022/09/02 12:03:23;;;;;;;1.47;1.37;;;;;;;30.79;37.54;94781.31;5040660;28;20705;-66
2022/09/02 12:06:13;;;;;;;1.43;1.33;;;;;;;30.82;38.69;94783.28;5021342;28;20205;-66
2022/09/02 12:08:41;;;;;;;2.47;1.97;;;;;;;30.64;38.97;94796.00;5041500;28;20193;-67